createdAt,value
2018-11-02T00:01:06.794Z,23.55
2018-11-02T00:03:33.478Z,23.55
2018-11-02T00:06:00.147Z,23.54
2018-11-02T00:08:26.820Z,23.53
2018-11-02T00:10:53.543Z,23.52
2018-11-02T00:13:20.181Z,23.53
2018-11-02T00:15:46.888Z,23.51
2018-11-02T00:18:13.584Z,23.50
2018-11-02T00:20:40.261Z,23.51
2018-11-02T00:23:06.866Z,23.50
2018-11-02T00:25:33.560Z,23.49
2018-11-02T00:28:00.256Z,23.50
2018-11-02T00:30:26.927Z,23.49
2018-11-02T00:32:53.606Z,23.49
2018-11-02T00:35:20.382Z,23.47
2018-11-02T00:37:47.176Z,23.46
2018-11-02T00:40:13.808Z,23.50
2018-11-02T00:42:40.539Z,23.49
2018-11-02T00:45:07.175Z,23.47
2018-11-02T00:47:33.968Z,23.47
2018-11-02T00:50:00.761Z,23.47
2018-11-02T00:52:30.690Z,23.49
2018-11-02T00:54:57.480Z,23.44
2018-11-02T00:57:24.201Z,23.44
2018-11-02T00:59:50.910Z,23.43
2018-11-02T01:02:17.596Z,23.43
2018-11-02T01:04:44.756Z,23.43
2018-11-02T01:07:11.483Z,23.44
2018-11-02T01:09:38.124Z,23.42
2018-11-02T01:12:04.948Z,23.42
2018-11-02T01:14:31.625Z,23.43
2018-11-02T01:17:01.364Z,23.41
2018-11-02T01:19:28.037Z,23.39
2018-11-02T01:21:54.779Z,23.39
2018-11-02T01:24:21.416Z,23.41
2018-11-02T01:26:48.120Z,23.40
2018-11-02T01:29:14.794Z,23.39
2018-11-02T01:31:41.569Z,23.41
2018-11-02T01:34:08.219Z,23.39
2018-11-02T01:36:34.901Z,23.39
2018-11-02T01:39:02.874Z,23.40
2018-11-02T01:41:28.328Z,23.39
2018-11-02T01:43:54.973Z,23.38
2018-11-02T01:46:21.601Z,23.37
2018-11-02T01:48:48.407Z,23.36
2018-11-02T01:51:15.059Z,23.35
2018-11-02T01:53:41.753Z,23.36
2018-11-02T01:56:08.467Z,23.35
2018-11-02T01:58:35.115Z,23.35
2018-11-02T02:01:01.839Z,23.35
2018-11-02T02:03:28.573Z,23.35
2018-11-02T02:05:55.243Z,23.35
2018-11-02T02:08:23.309Z,23.35
2018-11-02T02:10:48.584Z,23.35
2018-11-02T02:13:15.351Z,23.32
2018-11-02T02:15:41.967Z,23.32
2018-11-02T02:18:08.653Z,23.33
2018-11-02T02:20:35.305Z,23.32
2018-11-02T02:23:01.990Z,23.31
2018-11-02T02:25:28.682Z,23.32
2018-11-02T02:28:00.266Z,23.30
2018-11-02T02:30:27.017Z,23.31
2018-11-02T02:32:53.810Z,23.33
2018-11-02T02:35:20.766Z,23.32
2018-11-02T02:37:47.385Z,23.27
2018-11-02T02:40:14.086Z,23.29
2018-11-02T02:42:40.883Z,23.28
2018-11-02T02:45:07.556Z,23.27
2018-11-02T02:47:34.345Z,23.27
2018-11-02T02:50:01.042Z,23.26
2018-11-02T02:52:27.755Z,23.28
2018-11-02T02:54:55.807Z,23.29
2018-11-02T02:57:21.266Z,23.23
2018-11-02T02:59:47.902Z,23.25
2018-11-02T03:02:14.685Z,23.24
2018-11-02T03:04:41.346Z,23.23
2018-11-02T03:07:07.998Z,23.25
2018-11-02T03:09:34.803Z,23.25
2018-11-02T03:12:01.436Z,23.23
2018-11-02T03:14:28.079Z,23.22
2018-11-02T03:16:54.820Z,23.23
2018-11-02T03:19:21.459Z,23.23
2018-11-02T03:21:48.168Z,23.20
2018-11-02T03:24:14.802Z,23.20
2018-11-02T03:26:41.584Z,23.20
2018-11-02T03:29:08.228Z,23.18
2018-11-02T03:31:34.937Z,23.17
2018-11-02T03:34:02.660Z,23.15
2018-11-02T03:36:29.409Z,23.18
2018-11-02T03:38:56.134Z,23.19
2018-11-02T03:41:22.843Z,23.16
2018-11-02T03:43:49.646Z,23.15
2018-11-02T03:46:16.312Z,23.15
2018-11-02T03:48:42.972Z,23.15
2018-11-02T03:51:11.476Z,23.16
2018-11-02T03:53:38.169Z,23.12
2018-11-02T03:56:05.105Z,23.14
2018-11-02T03:58:31.743Z,23.13
2018-11-02T04:00:58.415Z,23.13
2018-11-02T04:03:25.163Z,23.09
2018-11-02T04:05:55.011Z,23.12
2018-11-02T04:08:21.647Z,23.10
2018-11-02T04:10:48.412Z,23.15
2018-11-02T04:13:15.048Z,23.07
2018-11-02T04:15:43.071Z,22.83
2018-11-02T04:18:08.427Z,22.82
2018-11-02T04:20:35.172Z,22.70
2018-11-02T04:23:01.828Z,22.81
2018-11-02T04:25:28.513Z,22.83
2018-11-02T04:27:55.196Z,22.90
2018-11-02T04:30:21.894Z,22.84
2018-11-02T04:32:48.533Z,22.70
2018-11-02T04:35:15.235Z,22.77
2018-11-02T04:37:43.279Z,22.80
2018-11-02T04:40:09.944Z,22.86
2018-11-02T04:42:35.281Z,22.89
2018-11-02T04:45:01.991Z,22.89
2018-11-02T04:47:31.561Z,22.94
2018-11-02T04:49:58.238Z,22.94
2018-11-02T04:52:24.940Z,22.87
2018-11-02T04:54:54.256Z,22.89
2018-11-02T04:57:20.903Z,22.80
2018-11-02T04:59:47.572Z,22.81
2018-11-02T05:02:14.313Z,22.89
2018-11-02T05:04:40.968Z,22.95
2018-11-02T05:07:07.608Z,22.96
2018-11-02T05:09:34.424Z,23.00
2018-11-02T05:12:01.027Z,22.98
2018-11-02T05:14:27.663Z,23.04
2018-11-02T05:16:56.974Z,23.00
2018-11-02T05:19:23.687Z,22.99
2018-11-02T05:21:50.381Z,23.04
2018-11-02T05:24:17.026Z,22.90
2018-11-02T05:26:43.772Z,22.89
2018-11-02T05:29:10.420Z,22.89
2018-11-02T05:31:37.109Z,22.90
2018-11-02T05:34:03.775Z,23.05
2018-11-02T05:36:30.382Z,23.01
2018-11-02T05:38:57.072Z,22.98
2018-11-02T05:41:23.708Z,22.97
2018-11-02T05:43:50.402Z,22.99
2018-11-02T05:46:17.098Z,22.95
2018-11-02T05:48:44.928Z,22.97
2018-11-02T05:51:10.483Z,22.99
2018-11-02T05:53:37.196Z,22.98
2018-11-02T05:56:03.911Z,22.95
2018-11-02T05:58:34.700Z,22.94
2018-11-02T06:01:00.145Z,22.94
2018-11-02T06:03:26.838Z,22.96
2018-11-02T06:05:53.523Z,22.97
2018-11-02T06:08:23.182Z,23.03
2018-11-02T06:10:49.871Z,23.15
2018-11-02T06:13:16.597Z,23.08
2018-11-02T06:15:43.272Z,23.05
2018-11-02T06:18:11.259Z,23.06
2018-11-02T06:20:36.623Z,23.07
2018-11-02T06:23:03.312Z,23.05
2018-11-02T06:25:29.959Z,23.10
2018-11-02T06:27:56.729Z,23.36
2018-11-02T06:30:23.488Z,23.22
2018-11-02T06:32:50.238Z,23.16
2018-11-02T06:35:16.817Z,23.20
2018-11-02T06:37:43.548Z,23.22
2018-11-02T06:40:10.267Z,23.33
2018-11-02T06:42:36.935Z,23.31
2018-11-02T06:45:03.884Z,23.26
2018-11-02T06:47:30.376Z,23.36
2018-11-02T06:49:59.832Z,23.31
2018-11-02T06:52:26.797Z,23.40
2018-11-02T06:54:53.621Z,23.48
2018-11-02T06:57:20.437Z,23.41
2018-11-02T06:59:47.296Z,23.38
2018-11-02T07:02:13.785Z,23.34
2018-11-02T07:04:40.431Z,23.34
2018-11-02T07:07:07.247Z,23.41
2018-11-02T07:09:33.914Z,23.49
2018-11-02T07:12:00.574Z,23.44
2018-11-02T07:14:27.223Z,23.43
2018-11-02T07:16:56.223Z,23.39
2018-11-02T07:19:20.774Z,23.41
2018-11-02T07:21:48.967Z,23.49
2018-11-02T07:24:14.189Z,23.51
2018-11-02T07:26:40.870Z,23.55
2018-11-02T07:29:10.391Z,23.56
2018-11-02T07:31:37.169Z,23.54
2018-11-02T07:34:03.975Z,23.56
2018-11-02T07:36:30.702Z,23.64
2018-11-02T07:38:57.393Z,23.66
2018-11-02T07:41:24.094Z,23.62
2018-11-02T07:43:50.855Z,23.63
2018-11-02T07:46:17.626Z,23.59
2018-11-02T07:48:44.468Z,23.59
2018-11-02T07:51:11.140Z,23.90
2018-11-02T07:53:37.848Z,23.78
2018-11-02T07:56:04.746Z,23.85
2018-11-02T07:58:31.360Z,23.96
2018-11-02T08:00:58.388Z,23.91
2018-11-02T08:03:25.093Z,23.92
2018-11-02T08:05:53.041Z,23.94
2018-11-02T08:08:18.575Z,23.96
2018-11-02T08:10:45.443Z,24.02
2018-11-02T08:13:12.174Z,24.10
2018-11-02T08:15:38.867Z,24.10
2018-11-02T08:18:05.544Z,24.20
2018-11-02T08:20:32.458Z,24.21
2018-11-02T08:23:01.539Z,24.31
2018-11-02T08:25:28.236Z,24.31
2018-11-02T08:27:54.957Z,24.36
2018-11-02T08:30:21.730Z,24.45
2018-11-02T08:32:51.480Z,24.47
2018-11-02T08:35:18.121Z,24.58
2018-11-02T08:37:44.940Z,24.48
2018-11-02T08:40:11.594Z,24.58
2018-11-02T08:42:38.479Z,24.62
2018-11-02T08:45:05.164Z,24.69
2018-11-02T08:47:32.128Z,24.67
2018-11-02T08:49:58.796Z,24.68
2018-11-02T08:52:25.504Z,24.76
2018-11-02T08:54:52.225Z,24.77
2018-11-02T08:57:18.969Z,24.76
2018-11-02T08:59:45.743Z,24.82
2018-11-02T09:02:13.835Z,24.91
2018-11-02T09:04:39.149Z,24.91
2018-11-02T09:07:05.959Z,24.92
2018-11-02T09:09:32.703Z,24.91
2018-11-02T09:11:59.369Z,25.01
2018-11-02T09:14:26.081Z,25.03
2018-11-02T09:16:52.836Z,24.99
2018-11-02T09:19:19.458Z,24.99
2018-11-02T09:21:46.172Z,24.99
2018-11-02T09:24:12.848Z,25.04
2018-11-02T09:26:39.560Z,25.07
2018-11-02T09:29:06.228Z,25.10
2018-11-02T09:31:32.959Z,25.03
2018-11-02T09:34:01.760Z,25.11
2018-11-02T09:36:26.344Z,25.11
2018-11-02T09:38:53.015Z,25.19
2018-11-02T09:41:19.782Z,25.12
2018-11-02T09:43:46.610Z,25.20
2018-11-02T09:46:15.791Z,25.16
2018-11-02T09:48:42.442Z,25.17
2018-11-02T09:51:09.137Z,25.30
2018-11-02T09:53:35.801Z,25.20
2018-11-02T09:56:02.496Z,25.13
2018-11-02T09:58:29.142Z,25.12
2018-11-02T10:00:56.027Z,25.17
2018-11-02T10:03:22.691Z,25.06
2018-11-02T10:05:49.386Z,25.13
2018-11-02T10:08:16.028Z,24.95
2018-11-02T10:10:42.769Z,24.97
2018-11-02T10:13:10.611Z,25.00
2018-11-02T10:15:36.213Z,25.10
2018-11-02T10:18:02.941Z,25.16
2018-11-02T10:20:29.656Z,25.25
2018-11-02T10:22:56.306Z,25.32
2018-11-02T10:25:23.048Z,25.38
2018-11-02T10:27:49.876Z,25.43
2018-11-02T10:30:16.919Z,25.48
2018-11-02T10:32:43.687Z,25.53
2018-11-02T10:35:10.356Z,25.51
2018-11-02T10:37:37.141Z,25.58
2018-11-02T10:40:03.789Z,25.58
2018-11-02T10:42:30.576Z,25.51
2018-11-02T10:44:57.662Z,25.46
2018-11-02T10:47:24.362Z,25.49
2018-11-02T10:49:50.998Z,25.50
2018-11-02T10:52:17.779Z,25.62
2018-11-02T10:54:44.622Z,25.49
2018-11-02T10:57:14.098Z,25.51
2018-11-02T10:59:41.219Z,25.56
2018-11-02T11:02:07.905Z,25.52
2018-11-02T11:04:34.612Z,25.58
2018-11-02T11:07:01.316Z,25.60
2018-11-02T11:09:28.107Z,25.54
2018-11-02T11:11:54.962Z,25.60
2018-11-02T11:14:23.696Z,25.60
2018-11-02T11:16:50.410Z,25.62
2018-11-02T11:19:17.204Z,25.60
2018-11-02T11:21:47.060Z,25.61
2018-11-02T11:24:13.775Z,25.61
2018-11-02T11:26:40.532Z,25.65
2018-11-02T11:29:07.306Z,25.69
2018-11-02T11:31:33.903Z,25.73
2018-11-02T11:34:00.689Z,25.77
2018-11-02T11:36:30.761Z,25.71
2018-11-02T11:38:57.688Z,25.66
2018-11-02T11:41:24.384Z,25.62
2018-11-02T11:43:51.065Z,25.63
2018-11-02T11:46:17.798Z,25.62
2018-11-02T11:48:44.493Z,25.73
2018-11-02T11:51:11.183Z,25.74
2018-11-02T11:53:38.656Z,25.77
2018-11-02T11:56:05.547Z,25.81
2018-11-02T11:58:32.282Z,25.79
2018-11-02T12:01:03.100Z,25.83
2018-11-02T12:03:29.755Z,25.90
2018-11-02T12:05:56.519Z,25.83
2018-11-02T12:08:23.260Z,25.86
2018-11-02T12:10:51.534Z,25.84
2018-11-02T12:13:16.644Z,25.80
2018-11-02T12:15:43.400Z,25.79
2018-11-02T12:18:14.322Z,25.85
2018-11-02T12:20:41.191Z,25.84
2018-11-02T12:23:07.956Z,25.78
2018-11-02T12:25:34.716Z,25.82
2018-11-02T12:28:01.431Z,25.79
2018-11-02T12:30:31.338Z,25.89
2018-11-02T12:32:58.192Z,25.85
2018-11-02T12:35:24.892Z,25.95
2018-11-02T12:37:51.579Z,25.96
2018-11-02T12:40:18.330Z,25.99
2018-11-02T12:42:47.469Z,26.04
2018-11-02T12:45:11.707Z,26.03
2018-11-02T12:47:38.610Z,26.07
2018-11-02T12:50:05.272Z,26.11
2018-11-02T12:52:31.943Z,26.06
2018-11-02T12:54:58.648Z,26.04
2018-11-02T12:57:27.248Z,26.01
2018-11-02T12:59:52.348Z,26.04
2018-11-02T13:02:18.992Z,26.00
2018-11-02T13:04:45.638Z,26.09
2018-11-02T13:07:12.354Z,26.12
2018-11-02T13:09:40.316Z,26.13
2018-11-02T13:12:05.895Z,26.18
2018-11-02T13:14:33.470Z,26.20
2018-11-02T13:17:00.228Z,26.20
2018-11-02T13:19:26.917Z,26.09
2018-11-02T13:21:53.721Z,26.06
2018-11-02T13:24:20.315Z,26.07
2018-11-02T13:26:46.899Z,26.08
2018-11-02T13:29:13.666Z,26.09
2018-11-02T13:31:43.447Z,26.12
2018-11-02T13:34:10.191Z,26.02
2018-11-02T13:36:37.096Z,26.09
2018-11-02T13:39:03.652Z,26.11
2018-11-02T13:41:30.392Z,25.97
2018-11-02T13:43:57.204Z,25.99
2018-11-02T13:46:23.889Z,26.02
2018-11-02T13:48:52.465Z,26.14
2018-11-02T13:51:19.136Z,26.11
2018-11-02T13:53:45.904Z,26.08
2018-11-02T13:56:12.652Z,26.20
2018-11-02T13:58:39.292Z,26.10
2018-11-02T14:01:06.303Z,25.98
2018-11-02T14:03:32.909Z,25.99
2018-11-02T14:05:59.687Z,25.94
2018-11-02T14:08:26.365Z,25.97
2018-11-02T14:10:53.198Z,26.01
2018-11-02T14:13:19.823Z,25.94
2018-11-02T14:15:46.517Z,25.96
2018-11-02T14:18:13.207Z,25.94
2018-11-02T14:20:39.897Z,26.01
2018-11-02T14:23:06.746Z,25.99
2018-11-02T14:25:35.727Z,25.97
2018-11-02T14:28:02.441Z,25.93
2018-11-02T14:30:29.185Z,25.95
2018-11-02T14:32:56.207Z,25.93
2018-11-02T14:35:23.900Z,26.08
2018-11-02T14:37:50.648Z,25.92
2018-11-02T14:40:17.298Z,25.95
2018-11-02T14:42:43.998Z,26.11
2018-11-02T14:45:10.701Z,26.11
2018-11-02T14:47:37.384Z,26.07
2018-11-02T14:50:04.101Z,26.13
2018-11-02T14:52:33.172Z,25.90
2018-11-02T14:54:57.633Z,25.71
2018-11-02T14:57:24.345Z,25.72
2018-11-02T14:59:52.617Z,25.68
2018-11-02T15:02:21.494Z,25.60
2018-11-02T15:04:46.676Z,25.56
2018-11-02T15:07:13.321Z,25.52
2018-11-02T15:09:40.098Z,25.50
2018-11-02T15:12:06.777Z,25.49
2018-11-02T15:14:33.493Z,25.46
2018-11-02T15:17:00.277Z,25.43
2018-11-02T15:19:27.007Z,25.69
2018-11-02T15:21:53.758Z,25.50
2018-11-02T15:24:20.497Z,25.39
2018-11-02T15:26:47.145Z,25.43
2018-11-02T15:29:13.979Z,25.40
2018-11-02T15:31:40.691Z,25.33
2018-11-02T15:34:07.431Z,25.31
2018-11-02T15:36:34.112Z,25.30
2018-11-02T15:39:00.901Z,25.29
2018-11-02T15:41:27.766Z,25.28
2018-11-02T15:43:56.126Z,25.29
2018-11-02T15:46:21.245Z,25.49
2018-11-02T15:48:47.934Z,25.32
2018-11-02T15:51:14.933Z,25.25
2018-11-02T15:53:41.775Z,25.26
2018-11-02T15:56:08.439Z,25.34
2018-11-02T15:58:36.340Z,25.33
2018-11-02T16:01:04.810Z,25.26
2018-11-02T16:03:31.541Z,25.16
2018-11-02T16:05:58.231Z,25.13
2018-11-02T16:08:24.846Z,25.18
2018-11-02T16:10:51.604Z,25.08
2018-11-02T16:13:18.305Z,25.04
2018-11-02T16:15:44.911Z,25.24
2018-11-02T16:18:11.700Z,25.10
2018-11-02T16:20:39.697Z,25.10
2018-11-02T16:23:04.995Z,25.06
2018-11-02T16:25:31.746Z,24.98
2018-11-02T16:27:59.483Z,24.96
2018-11-02T16:30:26.134Z,24.94
2018-11-02T16:32:56.191Z,24.99
2018-11-02T16:35:22.906Z,25.07
2018-11-02T16:37:49.601Z,25.07
2018-11-02T16:40:16.287Z,24.91
2018-11-02T16:42:42.942Z,24.90
2018-11-02T16:45:09.580Z,24.84
2018-11-02T16:47:36.348Z,24.84
2018-11-02T16:50:02.986Z,24.84
2018-11-02T16:52:29.617Z,24.85
2018-11-02T16:54:56.307Z,24.98
2018-11-02T16:57:23.028Z,24.86
2018-11-02T16:59:52.208Z,24.79
2018-11-02T17:02:16.547Z,24.81
2018-11-02T17:04:43.283Z,24.75
2018-11-02T17:07:10.002Z,24.76
2018-11-02T17:09:36.679Z,24.78
2018-11-02T17:12:03.348Z,24.82
2018-11-02T17:14:30.194Z,24.79
2018-11-02T17:16:56.862Z,24.80
2018-11-02T17:19:23.536Z,24.78
2018-11-02T17:21:50.314Z,24.78
2018-11-02T17:24:16.947Z,24.75
2018-11-02T17:26:43.639Z,24.76
2018-11-02T17:29:10.422Z,24.72
2018-11-02T17:31:37.172Z,24.75
2018-11-02T17:34:03.979Z,24.72
2018-11-02T17:36:32.010Z,24.69
2018-11-02T17:38:57.355Z,24.67
2018-11-02T17:41:26.438Z,24.67
2018-11-02T17:43:54.530Z,24.65
2018-11-02T17:46:19.790Z,24.67
2018-11-02T17:48:46.520Z,24.65
2018-11-02T17:51:13.268Z,24.64
2018-11-02T17:53:40.015Z,24.62
2018-11-02T17:56:06.715Z,24.59
2018-11-02T17:58:33.447Z,24.59
2018-11-02T18:01:00.252Z,24.55
2018-11-02T18:03:26.913Z,24.57
2018-11-02T18:05:53.812Z,24.51
2018-11-02T18:08:22.089Z,24.45
2018-11-02T18:10:47.471Z,24.51
2018-11-02T18:13:14.249Z,24.44
2018-11-02T18:15:40.929Z,24.41
2018-11-02T18:18:07.610Z,24.41
2018-11-02T18:20:35.283Z,24.43
2018-11-02T18:23:01.039Z,24.39
2018-11-02T18:25:27.792Z,24.38
2018-11-02T18:27:54.499Z,24.32
2018-11-02T18:30:21.166Z,24.31
2018-11-02T18:32:49.126Z,24.33
2018-11-02T18:35:14.594Z,24.30
2018-11-02T18:37:41.256Z,24.25
2018-11-02T18:40:07.973Z,24.26
2018-11-02T18:42:34.699Z,24.21
2018-11-02T18:45:01.406Z,24.21
2018-11-02T18:47:28.173Z,24.21
2018-11-02T18:49:55.787Z,24.18
2018-11-02T18:52:22.492Z,24.14
2018-11-02T18:54:49.170Z,24.15
2018-11-02T18:57:15.903Z,24.13
2018-11-02T18:59:45.287Z,24.09
2018-11-02T19:02:13.860Z,24.08
2018-11-02T19:04:38.726Z,24.07
2018-11-02T19:07:05.370Z,24.05
2018-11-02T19:09:32.177Z,24.06
2018-11-02T19:11:58.902Z,24.00
2018-11-02T19:14:25.663Z,24.00
2018-11-02T19:16:52.440Z,24.00
2018-11-02T19:19:19.135Z,23.97
2018-11-02T19:21:47.038Z,23.96
2018-11-02T19:24:13.785Z,23.95
2018-11-02T19:26:40.500Z,23.91
2018-11-02T19:29:07.187Z,23.88
2018-11-02T19:31:33.856Z,23.87
2018-11-02T19:34:00.662Z,23.86
2018-11-02T19:36:27.221Z,23.84
2018-11-02T19:38:53.982Z,23.84
2018-11-02T19:41:20.618Z,23.81
2018-11-02T19:43:47.255Z,23.79
2018-11-02T19:46:13.970Z,23.78
2018-11-02T19:48:40.631Z,23.78
2018-11-02T19:51:07.290Z,23.77
2018-11-02T19:53:34.097Z,23.75
2018-11-02T19:56:00.700Z,23.73
2018-11-02T19:58:27.399Z,23.72
2018-11-02T20:00:54.071Z,23.68
2018-11-02T20:03:20.750Z,23.69
2018-11-02T20:05:47.402Z,23.66
2018-11-02T20:08:14.127Z,23.65
2018-11-02T20:10:40.777Z,23.63
2018-11-02T20:13:07.485Z,23.59
2018-11-02T20:15:34.186Z,23.59
2018-11-02T20:18:00.821Z,23.57
2018-11-02T20:20:27.575Z,23.56
2018-11-02T20:22:54.299Z,23.51
2018-11-02T20:25:22.741Z,23.50
2018-11-02T20:27:47.670Z,23.49
2018-11-02T20:30:14.399Z,23.49
2018-11-02T20:32:41.115Z,23.47
2018-11-02T20:35:07.752Z,23.46
2018-11-02T20:37:34.428Z,23.45
2018-11-02T20:40:01.174Z,23.43
2018-11-02T20:42:27.943Z,23.40
2018-11-02T20:44:54.603Z,23.37
2018-11-02T20:47:21.283Z,23.42
2018-11-02T20:49:47.999Z,23.40
2018-11-02T20:52:14.695Z,23.37
2018-11-02T20:54:41.440Z,23.37
2018-11-02T20:57:09.439Z,23.36
2018-11-02T20:59:34.848Z,23.31
2018-11-02T21:02:01.488Z,23.30
2018-11-02T21:04:28.174Z,23.29
2018-11-02T21:06:54.809Z,23.25
2018-11-02T21:09:21.891Z,23.22
2018-11-02T21:11:48.239Z,23.24
2018-11-02T21:14:15.088Z,23.28
2018-11-02T21:16:44.969Z,23.26
2018-11-02T21:19:11.689Z,23.22
2018-11-02T21:21:38.402Z,23.17
2018-11-02T21:24:05.060Z,23.21
2018-11-02T21:26:31.777Z,23.16
2018-11-02T21:28:58.471Z,23.13
2018-11-02T21:31:25.179Z,23.15
2018-11-02T21:33:52.114Z,23.15
2018-11-02T21:36:21.316Z,23.12
2018-11-02T21:38:45.560Z,23.11
2018-11-02T21:41:12.153Z,23.09
2018-11-02T21:43:38.814Z,23.05
2018-11-02T21:46:05.450Z,23.05
2018-11-02T21:48:32.175Z,23.07
2018-11-02T21:50:58.885Z,23.06
2018-11-02T21:53:25.534Z,23.05
2018-11-02T21:55:52.291Z,23.02
2018-11-02T21:58:19.075Z,23.00
2018-11-02T22:00:45.780Z,23.01
2018-11-02T22:03:12.444Z,23.04
2018-11-02T22:05:39.089Z,23.01
2018-11-02T22:08:05.829Z,22.99
2018-11-02T22:10:32.466Z,22.96
2018-11-02T22:12:59.159Z,22.97
2018-11-02T22:15:25.862Z,22.95
2018-11-02T22:17:52.611Z,22.90
2018-11-02T22:20:22.303Z,22.89
2018-11-02T22:22:48.934Z,22.88
2018-11-02T22:25:15.706Z,22.90
2018-11-02T22:27:42.341Z,22.91
2018-11-02T22:30:09.048Z,22.88
2018-11-02T22:32:35.695Z,22.86
2018-11-02T22:35:05.263Z,22.86
2018-11-02T22:37:31.921Z,22.85
2018-11-02T22:39:58.659Z,22.84
2018-11-02T22:42:28.205Z,22.80
2018-11-02T22:44:54.888Z,22.81
2018-11-02T22:47:21.551Z,22.83
2018-11-02T22:49:48.196Z,22.84
2018-11-02T22:52:14.887Z,22.79
2018-11-02T22:54:41.623Z,22.78
2018-11-02T22:57:08.632Z,22.77
2018-11-02T22:59:35.300Z,22.76
2018-11-02T23:02:02.031Z,22.77
2018-11-02T23:04:28.731Z,22.73
2018-11-02T23:06:55.433Z,22.77
2018-11-02T23:09:24.189Z,22.72
2018-11-02T23:11:48.823Z,22.72
2018-11-02T23:14:15.461Z,22.70
2018-11-02T23:16:42.096Z,22.68
2018-11-02T23:19:08.808Z,22.69
2018-11-02T23:21:35.491Z,22.69
2018-11-02T23:24:02.182Z,22.67
2018-11-02T23:26:28.910Z,22.66
2018-11-02T23:28:55.610Z,22.67
2018-11-02T23:31:22.291Z,22.63
2018-11-02T23:33:49.043Z,22.63
2018-11-02T23:36:15.693Z,22.66
2018-11-02T23:38:42.377Z,22.65
2018-11-02T23:41:09.096Z,22.63
2018-11-02T23:43:35.731Z,22.60
2018-11-02T23:46:02.460Z,22.59
2018-11-02T23:48:29.119Z,22.57
2018-11-02T23:50:55.775Z,22.61
2018-11-02T23:53:22.406Z,22.62
2018-11-02T23:55:49.106Z,22.60
2018-11-02T23:58:15.899Z,22.58
